createdAt,value
2017-09-23T00:00:24.295Z,69.03
2017-09-23T00:02:50.704Z,103.43
2017-09-23T00:05:18.578Z,91.00
2017-09-23T00:07:45.753Z,68.60
2017-09-23T00:10:12.133Z,86.57
2017-09-23T00:12:38.562Z,101.10
2017-09-23T00:15:06.460Z,117.33
2017-09-23T00:17:33.604Z,113.57
2017-09-23T00:20:00.000Z,50.80
2017-09-23T00:22:26.403Z,183.17
2017-09-23T00:24:52.841Z,110.67
2017-09-23T00:27:19.293Z,83.63
2017-09-23T00:29:45.738Z,59.93
2017-09-23T00:32:12.198Z,56.80
2017-09-23T00:34:38.617Z,83.03
2017-09-23T00:37:05.025Z,50.40
2017-09-23T00:39:31.468Z,86.20
2017-09-23T00:41:57.919Z,167.03
2017-09-23T00:44:24.391Z,78.07
2017-09-23T00:46:50.838Z,153.63
2017-09-23T00:49:17.227Z,99.57
2017-09-23T00:51:45.173Z,130.90
2017-09-23T00:54:11.641Z,125.20
2017-09-23T00:56:38.812Z,141.73
2017-09-23T00:59:05.245Z,79.73
2017-09-23T01:01:31.677Z,173.00
2017-09-23T01:03:58.097Z,90.17
2017-09-23T01:06:24.622Z,115.40
2017-09-23T01:08:51.778Z,288.83
2017-09-23T01:11:19.009Z,348.77
2017-09-23T01:13:45.419Z,189.60
2017-09-23T01:16:11.866Z,137.33
2017-09-23T01:18:39.016Z,313.17
2017-09-23T01:21:05.432Z,115.60
2017-09-23T01:23:31.932Z,147.60
2017-09-23T01:25:58.367Z,98.70
2017-09-23T01:28:24.840Z,59.37
2017-09-23T01:30:51.383Z,145.10
2017-09-23T01:33:17.796Z,64.67
2017-09-23T01:35:44.239Z,82.93
2017-09-23T01:38:10.649Z,95.83
2017-09-23T01:40:37.093Z,63.80
2017-09-23T01:43:03.478Z,115.33
2017-09-23T01:45:30.650Z,152.80
2017-09-23T01:47:57.050Z,55.27
2017-09-23T01:50:24.195Z,134.97
2017-09-23T01:52:51.358Z,94.60
2017-09-23T01:55:18.495Z,71.37
2017-09-23T01:57:45.615Z,67.57
2017-09-23T02:00:12.021Z,188.43
2017-09-23T02:02:38.443Z,60.07
2017-09-23T02:05:04.875Z,116.13
2017-09-23T02:07:31.301Z,92.23
2017-09-23T02:09:57.693Z,220.43
2017-09-23T02:12:30.745Z,178.93
2017-09-23T02:14:57.157Z,58.93
2017-09-23T02:17:23.526Z,84.63
2017-09-23T02:19:49.931Z,136.00
2017-09-23T02:22:16.364Z,68.63
2017-09-23T02:24:42.752Z,66.97
2017-09-23T02:27:09.931Z,87.83
2017-09-23T02:29:36.327Z,67.90
2017-09-23T02:32:02.727Z,70.50
2017-09-23T02:34:29.137Z,62.70
2017-09-23T02:36:55.555Z,50.53
2017-09-23T02:39:22.818Z,55.90
2017-09-23T02:41:49.205Z,52.80
2017-09-23T02:44:15.594Z,97.23
2017-09-23T02:46:41.977Z,56.93
2017-09-23T02:49:09.467Z,58.93
2017-09-23T02:51:35.866Z,61.20
2017-09-23T02:54:03.048Z,78.20
2017-09-23T02:56:29.471Z,57.77
2017-09-23T02:58:56.651Z,61.63
2017-09-23T03:01:23.070Z,57.80
2017-09-23T03:03:49.444Z,53.60
2017-09-23T03:06:15.856Z,62.23
2017-09-23T03:08:42.352Z,51.63
2017-09-23T03:11:09.484Z,48.50
2017-09-23T03:13:36.632Z,43.63
2017-09-23T03:16:03.034Z,43.07
2017-09-23T03:18:29.466Z,45.03
2017-09-23T03:20:55.876Z,49.83
2017-09-23T03:23:22.293Z,58.30
2017-09-23T03:25:48.766Z,45.60
2017-09-23T03:28:15.397Z,45.53
2017-09-23T03:30:41.813Z,69.27
2017-09-23T03:33:08.209Z,64.27
2017-09-23T03:35:35.364Z,54.93
2017-09-23T03:38:02.492Z,49.70
2017-09-23T03:40:28.939Z,72.47
2017-09-23T03:42:56.114Z,55.37
2017-09-23T03:45:22.524Z,78.80
2017-09-23T03:47:49.703Z,85.33
2017-09-23T03:50:16.146Z,88.40
2017-09-23T03:52:42.599Z,152.23
2017-09-23T03:55:09.143Z,97.00
2017-09-23T03:57:35.564Z,182.50
2017-09-23T04:00:01.993Z,96.17
2017-09-23T04:02:28.425Z,133.40
2017-09-23T04:04:54.822Z,342.57
2017-09-23T04:07:21.232Z,232.40
2017-09-23T04:09:48.393Z,162.53
2017-09-23T04:12:15.708Z,114.57
2017-09-23T04:14:42.140Z,237.97
2017-09-23T04:17:08.586Z,157.23
2017-09-23T04:19:35.024Z,371.53
2017-09-23T04:22:01.416Z,137.83
2017-09-23T04:24:27.825Z,122.20
2017-09-23T04:26:54.250Z,114.07
2017-09-23T04:29:21.371Z,108.27
2017-09-23T04:31:48.710Z,57.03
2017-09-23T04:34:15.185Z,97.17
2017-09-23T04:36:41.629Z,64.50
2017-09-23T04:39:08.028Z,72.73
2017-09-23T04:41:34.476Z,109.80
2017-09-23T04:44:01.612Z,98.47
2017-09-23T04:46:28.762Z,73.40
2017-09-23T04:48:55.909Z,118.73
2017-09-23T04:51:22.348Z,232.50
2017-09-23T04:53:49.553Z,249.37
2017-09-23T04:56:15.995Z,171.33
2017-09-23T04:58:42.420Z,252.37
2017-09-23T05:01:08.859Z,106.40
2017-09-23T05:03:35.310Z,169.60
2017-09-23T05:06:01.701Z,389.33
2017-09-23T05:08:28.117Z,418.67
2017-09-23T05:10:54.529Z,218.43
2017-09-23T05:13:21.676Z,99.70
2017-09-23T05:15:48.875Z,140.53
2017-09-23T05:18:15.304Z,147.57
2017-09-23T05:20:41.728Z,143.67
2017-09-23T05:23:08.132Z,171.40
2017-09-23T05:25:35.328Z,155.30
2017-09-23T05:28:01.743Z,115.27
2017-09-23T05:30:28.138Z,122.87
2017-09-23T05:32:55.338Z,200.17
2017-09-23T05:35:21.952Z,333.03
2017-09-23T05:37:49.082Z,170.43
2017-09-23T05:40:16.217Z,141.23
2017-09-23T05:42:44.244Z,124.37
2017-09-23T05:45:10.685Z,161.03
2017-09-23T05:47:37.090Z,98.00
2017-09-23T05:50:03.497Z,109.80
2017-09-23T05:52:30.628Z,108.33
2017-09-23T05:54:58.612Z,92.43
2017-09-23T05:57:25.924Z,188.27
2017-09-23T05:59:52.354Z,272.13
2017-09-23T06:02:18.830Z,180.37
2017-09-23T06:04:45.232Z,115.47
2017-09-23T06:07:11.604Z,155.33
2017-09-23T06:09:38.812Z,109.77
2017-09-23T06:12:05.217Z,131.77
2017-09-23T06:14:31.638Z,131.60
2017-09-23T06:16:58.102Z,127.37
2017-09-23T06:19:24.504Z,140.87
2017-09-23T06:21:50.952Z,124.30
2017-09-23T06:24:17.367Z,175.10
2017-09-23T06:26:43.821Z,132.37
2017-09-23T06:29:10.305Z,167.47
2017-09-23T06:31:36.754Z,112.77
2017-09-23T06:34:03.951Z,100.10
2017-09-23T06:36:30.359Z,90.47
2017-09-23T06:38:56.743Z,87.13
2017-09-23T06:41:23.289Z,66.93
2017-09-23T06:43:49.701Z,76.33
2017-09-23T06:46:16.118Z,85.03
2017-09-23T06:48:42.507Z,68.53
2017-09-23T06:51:09.649Z,79.43
2017-09-23T06:53:36.099Z,54.63
2017-09-23T06:56:02.519Z,61.87
2017-09-23T06:58:29.657Z,56.07
2017-09-23T07:00:56.122Z,57.63
2017-09-23T07:03:22.680Z,54.27
2017-09-23T07:05:49.099Z,65.10
2017-09-23T07:08:15.522Z,64.77
2017-09-23T07:10:42.227Z,56.83
2017-09-23T07:13:08.630Z,62.43
2017-09-23T07:15:35.019Z,72.77
2017-09-23T07:18:01.491Z,59.70
2017-09-23T07:20:27.942Z,50.13
2017-09-23T07:22:55.857Z,60.47
2017-09-23T07:25:22.332Z,87.77
2017-09-23T07:27:48.827Z,45.37
2017-09-23T07:30:15.207Z,49.20
2017-09-23T07:32:41.607Z,57.90
2017-09-23T07:35:08.266Z,50.00
2017-09-23T07:37:34.685Z,51.13
2017-09-23T07:40:01.142Z,46.50
2017-09-23T07:42:27.587Z,52.70
2017-09-23T07:44:54.117Z,49.83
2017-09-23T07:47:21.292Z,52.20
2017-09-23T07:49:48.441Z,49.00
2017-09-23T07:52:15.563Z,54.37
2017-09-23T07:54:43.483Z,44.80
2017-09-23T07:57:09.890Z,42.57
2017-09-23T07:59:37.215Z,44.80
2017-09-23T08:02:03.626Z,44.30
2017-09-23T08:04:30.060Z,41.73
2017-09-23T08:06:56.513Z,37.80
2017-09-23T08:09:22.934Z,36.90
2017-09-23T08:11:49.415Z,40.50
2017-09-23T08:14:16.578Z,39.57
2017-09-23T08:16:43.062Z,38.37
2017-09-23T08:19:09.567Z,44.50
2017-09-23T08:21:35.969Z,38.10
2017-09-23T08:24:03.163Z,36.13
2017-09-23T08:26:29.601Z,38.30
2017-09-23T08:28:55.996Z,42.17
2017-09-23T08:31:23.141Z,36.53
2017-09-23T08:33:50.297Z,41.77
2017-09-23T08:36:16.764Z,36.43
2017-09-23T08:38:43.171Z,33.40
2017-09-23T08:41:09.591Z,39.07
2017-09-23T08:43:36.744Z,35.90
2017-09-23T08:46:03.136Z,37.30
2017-09-23T08:48:29.541Z,38.33
2017-09-23T08:50:55.991Z,40.30
2017-09-23T08:53:22.411Z,40.00
2017-09-23T08:55:48.811Z,37.10
2017-09-23T08:58:15.251Z,38.50
2017-09-23T09:00:41.685Z,37.67
2017-09-23T09:03:08.141Z,39.87
2017-09-23T09:05:34.570Z,37.03
2017-09-23T09:08:00.981Z,38.50
2017-09-23T09:10:27.382Z,38.50
2017-09-23T09:12:54.539Z,36.40
2017-09-23T09:15:21.691Z,37.97
2017-09-23T09:17:48.897Z,35.20
2017-09-23T09:20:15.755Z,38.20
2017-09-23T09:22:42.517Z,34.83
2017-09-23T09:25:08.898Z,42.00
2017-09-23T09:27:35.306Z,37.20
2017-09-23T09:30:01.728Z,39.97
2017-09-23T09:32:28.976Z,37.10
2017-09-23T09:34:55.495Z,39.37
2017-09-23T09:37:21.918Z,41.90
2017-09-23T09:39:48.333Z,39.10
2017-09-23T09:42:14.748Z,42.73
2017-09-23T09:44:41.835Z,40.83
2017-09-23T09:47:08.263Z,35.80
2017-09-23T09:49:34.675Z,38.10
2017-09-23T09:52:01.069Z,38.47
2017-09-23T09:54:27.478Z,42.20
2017-09-23T09:56:53.900Z,44.00
2017-09-23T09:59:20.305Z,35.90
2017-09-23T10:01:46.704Z,41.57
2017-09-23T10:04:13.138Z,39.10
2017-09-23T10:06:39.543Z,39.60
2017-09-23T10:09:05.937Z,38.50
2017-09-23T10:11:32.366Z,35.37
2017-09-23T10:13:58.795Z,37.10
2017-09-23T10:16:25.208Z,42.90
2017-09-23T10:18:51.720Z,43.43
2017-09-23T10:21:18.965Z,36.70
2017-09-23T10:23:46.132Z,56.30
2017-09-23T10:26:12.560Z,34.70
2017-09-23T10:28:39.780Z,37.83
2017-09-23T10:31:06.219Z,37.10
2017-09-23T10:33:32.633Z,34.43
2017-09-23T10:35:59.055Z,32.87
2017-09-23T10:38:25.734Z,35.07
2017-09-23T10:40:52.877Z,31.73
2017-09-23T10:43:20.801Z,32.73
2017-09-23T10:45:47.984Z,28.50
2017-09-23T10:48:14.468Z,29.87
2017-09-23T10:50:41.646Z,26.73
2017-09-23T10:53:08.109Z,26.03
2017-09-23T10:55:36.002Z,22.13
2017-09-23T10:58:03.166Z,27.20
2017-09-23T11:00:29.552Z,25.30
2017-09-23T11:02:55.946Z,22.67
2017-09-23T11:05:22.359Z,25.77
2017-09-23T11:07:48.757Z,23.03
2017-09-23T11:10:15.242Z,21.40
2017-09-23T11:12:41.661Z,21.83
2017-09-23T11:15:08.166Z,19.47
2017-09-23T11:17:36.028Z,19.40
2017-09-23T11:20:02.503Z,15.60
2017-09-23T11:22:28.923Z,17.87
2017-09-23T11:24:55.325Z,21.27
2017-09-23T11:27:21.806Z,27.23
2017-09-23T11:29:48.219Z,20.30
2017-09-23T11:32:15.351Z,18.60
2017-09-23T11:34:42.689Z,18.77
2017-09-23T11:37:09.264Z,17.73
2017-09-23T11:39:35.710Z,17.50
2017-09-23T11:42:03.127Z,16.00
2017-09-23T11:44:30.309Z,22.70
2017-09-23T11:46:57.018Z,16.33
2017-09-23T11:49:24.135Z,19.20
2017-09-23T11:51:50.528Z,18.67
2017-09-23T11:54:16.941Z,17.10
2017-09-23T11:56:44.050Z,15.37
2017-09-23T11:59:10.455Z,18.20
2017-09-23T12:01:36.878Z,20.33
2017-09-23T12:04:03.288Z,15.03
2017-09-23T12:06:30.498Z,16.63
2017-09-23T12:08:56.924Z,14.67
2017-09-23T12:11:23.306Z,14.10
2017-09-23T12:13:50.481Z,11.17
2017-09-23T12:16:16.941Z,17.70
2017-09-23T12:18:43.366Z,14.53
2017-09-23T12:21:09.778Z,12.80
2017-09-23T12:23:36.211Z,16.00
2017-09-23T12:26:02.601Z,10.63
2017-09-23T12:28:28.993Z,16.13
2017-09-23T12:30:55.453Z,13.03
2017-09-23T12:33:21.872Z,10.30
2017-09-23T12:35:48.277Z,10.90
2017-09-23T12:38:14.690Z,16.33
2017-09-23T12:40:41.853Z,14.37
2017-09-23T12:43:08.427Z,10.67
2017-09-23T12:45:34.849Z,10.30
2017-09-23T12:48:01.257Z,14.33
2017-09-23T12:50:27.703Z,9.97
2017-09-23T12:52:54.106Z,13.50
2017-09-23T12:55:21.314Z,13.00
2017-09-23T12:57:47.736Z,13.20
2017-09-23T13:00:14.167Z,14.87
2017-09-23T13:02:41.339Z,15.10
2017-09-23T13:05:07.737Z,18.30
2017-09-23T13:07:34.185Z,16.67
2017-09-23T13:10:01.371Z,14.90
2017-09-23T13:12:28.521Z,17.30
2017-09-23T13:14:54.928Z,14.90
2017-09-23T13:17:21.342Z,17.03
2017-09-23T13:19:47.751Z,21.83
2017-09-23T13:22:14.185Z,17.63
2017-09-23T13:24:41.313Z,20.47
2017-09-23T13:27:08.463Z,16.50
2017-09-23T13:29:35.633Z,17.43
2017-09-23T13:32:02.042Z,21.17
2017-09-23T13:34:29.318Z,17.97
2017-09-23T13:36:55.736Z,16.40
2017-09-23T13:39:23.168Z,19.13
2017-09-23T13:41:51.051Z,15.10
2017-09-23T13:44:18.181Z,13.97
2017-09-23T13:46:46.132Z,15.60
2017-09-23T13:49:12.537Z,16.13
2017-09-23T13:51:38.947Z,16.60
2017-09-23T13:54:06.148Z,16.10
2017-09-23T13:56:32.541Z,14.40
2017-09-23T13:58:58.934Z,20.03
2017-09-23T14:01:26.080Z,14.87
2017-09-23T14:03:53.972Z,16.90
2017-09-23T14:06:21.087Z,16.17
2017-09-23T14:08:47.575Z,15.00
2017-09-23T14:11:14.034Z,16.87
2017-09-23T14:13:40.497Z,17.37
2017-09-23T14:16:06.931Z,18.90
2017-09-23T14:18:33.382Z,17.67
2017-09-23T14:21:00.530Z,19.27
2017-09-23T14:23:27.760Z,18.83
2017-09-23T14:25:54.184Z,18.40
2017-09-23T14:28:20.636Z,22.30
2017-09-23T14:30:47.031Z,21.97
2017-09-23T14:33:13.457Z,29.20
2017-09-23T14:35:39.875Z,23.17
2017-09-23T14:38:06.256Z,27.63
2017-09-23T14:40:32.644Z,20.47
2017-09-23T14:42:59.056Z,24.53
2017-09-23T14:45:26.218Z,22.20
2017-09-23T14:47:52.712Z,21.23
2017-09-23T14:50:19.132Z,27.43
2017-09-23T14:52:45.565Z,23.17
2017-09-23T14:55:12.020Z,20.73
2017-09-23T14:57:38.460Z,25.60
2017-09-23T15:00:05.722Z,23.37
2017-09-23T15:02:32.921Z,20.87
2017-09-23T15:04:59.343Z,20.93
2017-09-23T15:07:25.777Z,24.70
2017-09-23T15:09:52.201Z,21.57
2017-09-23T15:12:18.612Z,21.97
2017-09-23T15:14:45.783Z,21.37
2017-09-23T15:17:12.207Z,22.23
2017-09-23T15:19:38.624Z,19.00
2017-09-23T15:22:05.793Z,24.83
2017-09-23T15:24:32.200Z,22.10
2017-09-23T15:26:58.588Z,26.17
2017-09-23T15:29:24.989Z,22.30
2017-09-23T15:31:51.402Z,23.23
2017-09-23T15:34:18.551Z,22.30
2017-09-23T15:36:45.793Z,19.83
2017-09-23T15:39:12.194Z,22.77
2017-09-23T15:41:38.628Z,29.10
2017-09-23T15:44:05.024Z,23.57
2017-09-23T15:46:31.417Z,19.47
2017-09-23T15:48:57.932Z,24.20
2017-09-23T15:51:24.348Z,21.83
2017-09-23T15:53:50.729Z,22.43
2017-09-23T15:56:17.871Z,19.70
2017-09-23T15:58:44.306Z,20.00
2017-09-23T16:01:10.696Z,23.67
2017-09-23T16:03:37.101Z,27.07
2017-09-23T16:06:03.513Z,22.60
2017-09-23T16:08:30.652Z,25.83
2017-09-23T16:10:57.049Z,21.83
2017-09-23T16:13:23.461Z,25.60
2017-09-23T16:15:49.893Z,22.50
2017-09-23T16:18:16.314Z,27.63
2017-09-23T16:20:42.781Z,27.50
2017-09-23T16:23:09.200Z,28.60
2017-09-23T16:25:36.284Z,28.90
2017-09-23T16:28:02.690Z,23.00
2017-09-23T16:30:29.127Z,21.47
2017-09-23T16:32:56.079Z,20.40
2017-09-23T16:35:22.520Z,24.50
2017-09-23T16:37:48.905Z,25.40
2017-09-23T16:40:16.029Z,21.33
2017-09-23T16:42:43.180Z,26.33
2017-09-23T16:45:10.490Z,20.00
2017-09-23T16:47:36.912Z,22.57
2017-09-23T16:50:03.307Z,18.13
2017-09-23T16:52:30.524Z,23.33
2017-09-23T16:54:57.042Z,20.13
2017-09-23T16:57:23.444Z,20.10
2017-09-23T16:59:49.873Z,21.53
2017-09-23T17:02:16.271Z,24.53
2017-09-23T17:04:42.709Z,19.97
2017-09-23T17:07:09.125Z,25.97
2017-09-23T17:09:35.568Z,32.03
2017-09-23T17:12:02.004Z,23.63
2017-09-23T17:14:29.167Z,24.83
2017-09-23T17:16:56.329Z,23.97
2017-09-23T17:19:23.503Z,25.43
2017-09-23T17:21:50.140Z,23.87
2017-09-23T17:24:16.537Z,26.63
2017-09-23T17:26:42.950Z,23.73
2017-09-23T17:29:09.357Z,35.77
2017-09-23T17:31:35.769Z,29.83
2017-09-23T17:34:02.152Z,26.07
2017-09-23T17:36:28.596Z,24.23
2017-09-23T17:38:55.002Z,26.57
2017-09-23T17:41:21.439Z,24.80
2017-09-23T17:43:47.876Z,24.10
2017-09-23T17:46:14.363Z,21.90
2017-09-23T17:48:40.796Z,25.70
2017-09-23T17:51:07.226Z,29.70
2017-09-23T17:53:33.623Z,23.50
2017-09-23T17:56:00.041Z,28.63
2017-09-23T17:58:26.499Z,24.53
2017-09-23T18:00:53.690Z,25.30
2017-09-23T18:03:20.156Z,26.10
2017-09-23T18:05:46.553Z,23.73
2017-09-23T18:08:12.946Z,25.87
2017-09-23T18:10:40.091Z,27.30
2017-09-23T18:13:06.531Z,22.53
2017-09-23T18:15:33.723Z,25.70
2017-09-23T18:18:00.140Z,27.33
2017-09-23T18:20:26.571Z,23.00
2017-09-23T18:22:53.018Z,28.80
2017-09-23T18:25:19.504Z,30.23
2017-09-23T18:27:47.385Z,24.43
2017-09-23T18:30:14.528Z,26.83
2017-09-23T18:32:41.720Z,23.60
2017-09-23T18:35:08.150Z,29.23
2017-09-23T18:37:34.540Z,27.90
2017-09-23T18:40:00.959Z,23.23
2017-09-23T18:42:27.376Z,20.90
2017-09-23T18:44:53.785Z,23.80
2017-09-23T18:47:20.230Z,19.07
2017-09-23T18:49:46.632Z,19.23
2017-09-23T18:52:13.079Z,19.50
2017-09-23T18:54:39.528Z,22.47
2017-09-23T18:57:06.076Z,25.40
2017-09-23T18:59:32.535Z,26.67
2017-09-23T19:01:59.701Z,19.00
2017-09-23T19:04:26.832Z,20.40
2017-09-23T19:06:53.298Z,17.47
2017-09-23T19:09:19.729Z,21.93
2017-09-23T19:11:46.145Z,18.23
2017-09-23T19:14:13.296Z,17.30
2017-09-23T19:16:40.523Z,16.70
2017-09-23T19:19:06.944Z,17.20
2017-09-23T19:21:33.382Z,14.77
2017-09-23T19:23:59.785Z,14.53
2017-09-23T19:26:26.277Z,12.97
2017-09-23T19:28:53.396Z,14.97
2017-09-23T19:31:19.870Z,16.17
2017-09-23T19:33:46.347Z,16.50
2017-09-23T19:36:12.756Z,16.17
2017-09-23T19:38:39.166Z,15.67
2017-09-23T19:41:06.318Z,19.43
2017-09-23T19:43:33.487Z,14.50
2017-09-23T19:45:59.932Z,21.00
2017-09-23T19:48:26.328Z,15.80
2017-09-23T19:50:53.479Z,16.57
2017-09-23T19:53:19.936Z,14.23
2017-09-23T19:55:46.386Z,14.20
2017-09-23T19:58:12.804Z,14.90
2017-09-23T20:00:39.197Z,13.77
2017-09-23T20:03:06.389Z,19.00
2017-09-23T20:05:32.805Z,13.90
2017-09-23T20:07:59.974Z,38.70
2017-09-23T20:10:26.472Z,28.83
2017-09-23T20:12:52.871Z,25.80
2017-09-23T20:15:19.297Z,25.63
2017-09-23T20:17:45.700Z,31.50
2017-09-23T20:20:12.816Z,36.43
2017-09-23T20:22:39.269Z,41.40
2017-09-23T20:25:05.725Z,30.80
2017-09-23T20:27:32.197Z,19.57
2017-09-23T20:29:58.638Z,23.27
2017-09-23T20:32:25.055Z,65.00
2017-09-23T20:34:51.487Z,51.40
2017-09-23T20:37:17.894Z,24.23
2017-09-23T20:39:44.310Z,15.53
2017-09-23T20:42:10.728Z,18.93
2017-09-23T20:44:37.189Z,18.20
2017-09-23T20:47:03.616Z,15.53
2017-09-23T20:49:30.032Z,22.87
2017-09-23T20:51:57.196Z,24.00
2017-09-23T20:54:24.464Z,24.03
2017-09-23T20:56:50.919Z,23.03
2017-09-23T20:59:17.344Z,32.63
2017-09-23T21:01:43.919Z,22.77
2017-09-23T21:04:10.319Z,16.93
2017-09-23T21:06:36.742Z,17.33
2017-09-23T21:09:03.813Z,15.43
2017-09-23T21:11:30.949Z,15.87
2017-09-23T21:13:57.416Z,21.70
2017-09-23T21:16:24.602Z,19.67
2017-09-23T21:18:50.976Z,17.70
2017-09-23T21:21:17.408Z,16.80
2017-09-23T21:23:43.805Z,16.13
2017-09-23T21:26:10.204Z,14.90
2017-09-23T21:28:37.385Z,15.97
2017-09-23T21:31:03.861Z,20.13
2017-09-23T21:33:30.285Z,21.90
2017-09-23T21:35:56.646Z,18.47
2017-09-23T21:38:23.060Z,15.07
2017-09-23T21:40:49.541Z,21.50
2017-09-23T21:43:15.940Z,22.53
2017-09-23T21:45:42.394Z,39.77
2017-09-23T21:48:09.530Z,47.97
2017-09-23T21:50:36.673Z,47.90
2017-09-23T21:53:03.129Z,43.03
2017-09-23T21:55:30.288Z,22.10
2017-09-23T21:57:56.664Z,21.83
2017-09-23T22:00:23.075Z,22.57
2017-09-23T22:02:49.517Z,21.50
2017-09-23T22:05:15.924Z,39.63
2017-09-23T22:07:42.341Z,44.23
2017-09-23T22:10:09.510Z,20.43
2017-09-23T22:12:35.936Z,22.40
2017-09-23T22:15:02.351Z,20.00
2017-09-23T22:17:29.488Z,33.17
2017-09-23T22:19:55.992Z,26.77
2017-09-23T22:22:22.389Z,22.90
2017-09-23T22:24:48.765Z,25.37
2017-09-23T22:27:15.194Z,18.00
2017-09-23T22:29:41.582Z,136.20
2017-09-23T22:32:07.973Z,153.13
2017-09-23T22:34:34.385Z,58.57
2017-09-23T22:37:00.828Z,24.10
2017-09-23T22:39:27.217Z,24.27
2017-09-23T22:41:53.685Z,89.30
2017-09-23T22:44:20.125Z,33.13
2017-09-23T22:46:46.512Z,107.40
2017-09-23T22:49:12.920Z,163.13
2017-09-23T22:51:39.329Z,50.63
2017-09-23T22:54:05.764Z,126.83
2017-09-23T22:56:32.174Z,49.27
2017-09-23T22:58:58.572Z,54.37
2017-09-23T23:01:25.038Z,33.70
2017-09-23T23:03:51.414Z,36.20
2017-09-23T23:06:18.607Z,130.27
2017-09-23T23:08:44.988Z,29.00
2017-09-23T23:11:11.417Z,133.27
2017-09-23T23:13:37.812Z,41.50
2017-09-23T23:16:04.236Z,22.40
2017-09-23T23:18:30.651Z,20.60
2017-09-23T23:20:57.125Z,23.23
2017-09-23T23:23:23.502Z,24.60
2017-09-23T23:25:50.645Z,20.73
2017-09-23T23:28:17.787Z,22.70
2017-09-23T23:30:44.959Z,25.57
2017-09-23T23:33:12.106Z,25.27
2017-09-23T23:35:39.279Z,23.73
2017-09-23T23:38:05.722Z,20.63
2017-09-23T23:40:32.144Z,49.17
2017-09-23T23:42:58.563Z,35.87
2017-09-23T23:45:25.712Z,28.90
2017-09-23T23:47:52.832Z,24.97
2017-09-23T23:50:19.307Z,20.53
2017-09-23T23:52:45.710Z,21.30
2017-09-23T23:55:12.885Z,23.13
2017-09-23T23:57:39.291Z,25.97
